createdAt,value
2023-03-04T00:00:28.907Z,5.50
2023-03-04T00:02:56.274Z,5.50
2023-03-04T00:05:23.435Z,5.50
2023-03-04T00:07:50.479Z,5.50
2023-03-04T00:10:17.962Z,5.50
2023-03-04T00:12:45.183Z,5.40
2023-03-04T00:15:12.383Z,5.40
2023-03-04T00:17:39.544Z,5.50
2023-03-04T00:20:07.704Z,5.50
2023-03-04T00:22:34.973Z,5.40
2023-03-04T00:25:02.188Z,5.50
2023-03-04T00:27:29.294Z,5.50
2023-03-04T00:29:57.264Z,5.50
2023-03-04T00:32:24.364Z,5.50
2023-03-04T00:34:51.841Z,5.50
2023-03-04T00:37:19.184Z,5.50
2023-03-04T00:39:46.172Z,5.50
2023-03-04T00:42:13.428Z,5.50
2023-03-04T00:44:40.665Z,5.40
2023-03-04T00:47:07.732Z,5.40
2023-03-04T00:49:34.868Z,5.40
2023-03-04T00:52:01.922Z,5.50
2023-03-04T00:54:29.344Z,5.40
2023-03-04T00:56:56.769Z,5.40
2023-03-04T00:59:23.880Z,5.40
2023-03-04T01:01:50.952Z,5.40
2023-03-04T01:04:18.241Z,5.40
2023-03-04T01:06:45.690Z,5.50
2023-03-04T01:09:12.852Z,5.50
2023-03-04T01:11:39.847Z,5.40
2023-03-04T01:14:07.115Z,5.50
2023-03-04T01:16:34.834Z,5.40
2023-03-04T01:19:02.116Z,5.50
2023-03-04T01:21:29.450Z,5.50
2023-03-04T01:23:56.621Z,5.50
2023-03-04T01:26:23.685Z,5.50
2023-03-04T01:28:50.790Z,5.50
2023-03-04T01:31:17.928Z,5.60
2023-03-04T01:33:45.198Z,5.60
2023-03-04T01:36:12.394Z,5.60
2023-03-04T01:38:39.489Z,5.50
2023-03-04T01:41:07.556Z,5.50
2023-03-04T01:43:37.110Z,5.60
2023-03-04T01:46:06.111Z,5.50
2023-03-04T01:48:39.148Z,5.50
2023-03-04T01:51:17.488Z,5.50
2023-03-04T01:53:50.226Z,5.50
2023-03-04T01:56:35.287Z,5.50
2023-03-04T01:59:15.901Z,5.50
2023-03-04T02:01:51.599Z,5.50
2023-03-04T02:04:23.418Z,5.50
2023-03-04T02:06:51.164Z,5.50
2023-03-04T02:09:19.927Z,5.50
2023-03-04T02:11:49.252Z,5.50
2023-03-04T02:14:18.049Z,5.50
2023-03-04T02:16:45.346Z,5.50
2023-03-04T02:19:31.720Z,5.50
2023-03-04T02:21:58.729Z,5.50
2023-03-04T02:24:43.749Z,5.50
2023-03-04T02:27:10.876Z,5.50
2023-03-04T02:29:38.263Z,5.50
2023-03-04T02:32:06.198Z,5.50
2023-03-04T02:34:37.439Z,5.50
2023-03-04T02:37:04.930Z,5.50
2023-03-04T02:39:46.059Z,5.50
2023-03-04T02:42:13.531Z,5.50
2023-03-04T02:44:48.364Z,5.50
2023-03-04T02:47:18.797Z,5.50
2023-03-04T02:49:47.599Z,5.50
2023-03-04T02:52:26.697Z,5.50
2023-03-04T02:54:53.861Z,5.50
2023-03-04T02:57:20.945Z,5.50
2023-03-04T02:59:48.371Z,5.50
2023-03-04T03:02:15.703Z,5.50
2023-03-04T03:04:42.880Z,5.50
2023-03-04T03:07:10.471Z,5.50
2023-03-04T03:09:37.549Z,5.50
2023-03-04T03:12:05.095Z,5.40
2023-03-04T03:14:32.294Z,5.50
2023-03-04T03:16:59.640Z,5.40
2023-03-04T03:19:26.924Z,5.50
2023-03-04T03:21:54.143Z,5.40
2023-03-04T03:24:21.418Z,5.50
2023-03-04T03:26:48.921Z,5.40
2023-03-04T03:29:16.448Z,5.50
2023-03-04T03:31:43.743Z,5.40
2023-03-04T03:34:10.846Z,5.40
2023-03-04T03:36:38.004Z,5.40
2023-03-04T03:39:05.675Z,5.40
2023-03-04T03:41:32.937Z,5.40
2023-03-04T03:44:00.463Z,5.40
2023-03-04T03:46:27.794Z,5.40
2023-03-04T03:48:55.011Z,5.40
2023-03-04T03:51:22.107Z,5.40
2023-03-04T03:53:49.626Z,5.40
2023-03-04T03:56:16.627Z,5.40
2023-03-04T03:58:43.862Z,5.40
2023-03-04T04:01:11.036Z,5.40
2023-03-04T04:03:38.219Z,5.50
2023-03-04T04:06:05.628Z,5.40
2023-03-04T04:08:33.540Z,5.40
2023-03-04T04:11:00.886Z,5.40
2023-03-04T04:13:27.992Z,5.40
2023-03-04T04:15:55.274Z,5.40
2023-03-04T04:18:23.974Z,5.40
2023-03-04T04:20:53.202Z,5.40
2023-03-04T04:23:20.375Z,5.40
2023-03-04T04:25:47.749Z,5.40
2023-03-04T04:28:15.031Z,5.40
2023-03-04T04:30:42.546Z,5.40
2023-03-04T04:33:10.904Z,5.40
2023-03-04T04:35:39.216Z,5.40
2023-03-04T04:38:07.812Z,5.40
2023-03-04T04:40:35.519Z,5.40
2023-03-04T04:43:03.378Z,5.40
2023-03-04T04:45:30.737Z,5.40
2023-03-04T04:47:58.086Z,5.40
2023-03-04T04:50:26.485Z,5.40
2023-03-04T04:52:53.727Z,5.40
2023-03-04T04:55:20.834Z,5.40
2023-03-04T04:57:48.127Z,5.30
2023-03-04T05:00:15.790Z,5.40
2023-03-04T05:02:43.034Z,5.30
2023-03-04T05:05:10.894Z,5.30
2023-03-04T05:07:37.981Z,5.30
2023-03-04T05:10:05.665Z,5.40
2023-03-04T05:12:32.744Z,5.30
2023-03-04T05:14:59.938Z,5.40
2023-03-04T05:17:28.381Z,5.40
2023-03-04T05:19:55.575Z,5.30
2023-03-04T05:22:22.870Z,5.30
2023-03-04T05:24:50.269Z,5.40
2023-03-04T05:27:17.385Z,5.40
2023-03-04T05:29:46.898Z,5.40
2023-03-04T05:32:14.274Z,5.40
2023-03-04T05:34:41.597Z,5.30
2023-03-04T05:37:08.683Z,5.30
2023-03-04T05:39:35.912Z,5.30
2023-03-04T05:42:03.200Z,5.30
2023-03-04T05:44:30.481Z,5.30
2023-03-04T05:46:57.690Z,5.30
2023-03-04T05:49:24.921Z,5.30
2023-03-04T05:51:52.444Z,5.30
2023-03-04T05:54:19.838Z,5.30
2023-03-04T05:56:46.880Z,5.30
2023-03-04T05:59:14.222Z,5.30
2023-03-04T06:01:41.509Z,5.30
2023-03-04T06:04:08.878Z,5.30
2023-03-04T06:06:36.054Z,5.30
2023-03-04T06:09:03.177Z,5.30
2023-03-04T06:11:30.545Z,5.30
2023-03-04T06:13:58.379Z,5.30
2023-03-04T06:16:25.734Z,5.30
2023-03-04T06:18:53.267Z,5.30
2023-03-04T06:21:20.701Z,5.30
2023-03-04T06:23:48.168Z,5.30
2023-03-04T06:26:15.914Z,5.30
2023-03-04T06:28:44.911Z,5.30
2023-03-04T06:31:12.263Z,5.30
2023-03-04T06:33:39.469Z,5.30
2023-03-04T06:36:07.280Z,5.30
2023-03-04T06:38:34.358Z,5.30
2023-03-04T06:41:11.173Z,5.30
2023-03-04T06:43:38.837Z,5.40
2023-03-04T06:46:08.028Z,5.40
2023-03-04T06:48:35.745Z,5.30
2023-03-04T06:51:11.666Z,5.40
2023-03-04T06:53:40.253Z,5.40
2023-03-04T06:56:11.166Z,5.40
2023-03-04T06:58:38.649Z,5.40
2023-03-04T07:01:23.716Z,5.40
2023-03-04T07:03:53.328Z,5.40
2023-03-04T07:06:24.874Z,5.40
2023-03-04T07:08:52.723Z,5.40
2023-03-04T07:11:22.169Z,5.30
2023-03-04T07:13:49.863Z,5.40
2023-03-04T07:16:21.274Z,5.40
2023-03-04T07:18:48.500Z,5.40
2023-03-04T07:21:16.944Z,5.30
2023-03-04T07:23:44.660Z,5.30
2023-03-04T07:26:12.396Z,5.30
2023-03-04T07:28:40.499Z,5.30
2023-03-04T07:31:29.937Z,5.30
2023-03-04T07:34:07.420Z,5.30
2023-03-04T07:36:37.370Z,5.30
2023-03-04T07:39:05.886Z,5.40
2023-03-04T07:41:36.416Z,5.40
2023-03-04T07:44:05.811Z,5.40
2023-03-04T07:46:33.902Z,5.40
2023-03-04T07:49:01.304Z,5.50
2023-03-04T07:51:29.426Z,5.60
2023-03-04T07:53:59.996Z,5.70
2023-03-04T07:56:32.027Z,5.70
2023-03-04T07:59:00.447Z,5.80
2023-03-04T08:01:37.177Z,6.00
2023-03-04T08:04:06.996Z,5.90
2023-03-04T08:06:35.116Z,5.90
2023-03-04T08:09:07.012Z,5.80
2023-03-04T08:11:37.489Z,5.60
2023-03-04T08:14:05.168Z,5.50
2023-03-04T08:16:33.639Z,5.60
2023-03-04T08:19:02.827Z,5.50
2023-03-04T08:21:30.238Z,5.50
2023-03-04T08:24:04.340Z,5.50
2023-03-04T08:26:40.928Z,5.60
2023-03-04T08:29:12.542Z,5.60
2023-03-04T08:31:40.271Z,5.70
2023-03-04T08:34:10.188Z,5.70
2023-03-04T08:36:37.524Z,5.70
2023-03-04T08:39:05.939Z,5.80
2023-03-04T08:41:33.849Z,5.90
2023-03-04T08:44:01.742Z,6.00
2023-03-04T08:46:29.664Z,6.00
2023-03-04T08:48:57.259Z,6.00
2023-03-04T08:51:25.023Z,6.00
2023-03-04T08:53:52.859Z,6.20
2023-03-04T08:56:20.223Z,6.30
2023-03-04T08:58:47.477Z,6.20
2023-03-04T09:01:15.894Z,6.40
2023-03-04T09:03:43.665Z,6.50
2023-03-04T09:06:16.668Z,6.50
2023-03-04T09:08:45.182Z,6.50
2023-03-04T09:11:13.784Z,6.60
2023-03-04T09:13:41.043Z,6.60
2023-03-04T09:16:14.334Z,6.80
2023-03-04T09:18:42.660Z,6.70
2023-03-04T09:21:11.457Z,6.80
2023-03-04T09:23:39.627Z,6.60
2023-03-04T09:26:26.920Z,6.80
2023-03-04T09:28:57.901Z,6.90
2023-03-04T09:31:27.199Z,6.90
2023-03-04T09:33:55.566Z,7.10
2023-03-04T09:36:23.608Z,7.10
2023-03-04T09:38:51.284Z,7.20
2023-03-04T09:41:29.560Z,7.10
2023-03-04T09:43:57.468Z,7.20
2023-03-04T09:46:40.603Z,7.20
2023-03-04T09:49:10.789Z,7.10
2023-03-04T09:51:57.911Z,7.00
2023-03-04T09:54:56.750Z,7.20
2023-03-04T09:57:45.497Z,7.40
2023-03-04T10:00:42.864Z,7.40
2023-03-04T10:03:10.153Z,7.60
2023-03-04T10:06:09.812Z,7.80
2023-03-04T10:09:12.403Z,7.90
2023-03-04T10:11:54.014Z,8.00
2023-03-04T10:14:24.508Z,7.90
2023-03-04T10:16:59.061Z,7.80
2023-03-04T10:19:53.006Z,8.10
2023-03-04T10:22:32.129Z,7.90
2023-03-04T10:25:27.893Z,7.90
2023-03-04T10:28:09.833Z,7.70
2023-03-04T10:31:02.096Z,7.60
2023-03-04T10:33:35.340Z,7.30
2023-03-04T10:36:29.650Z,7.20
2023-03-04T10:39:12.768Z,7.30
2023-03-04T10:41:53.683Z,7.50
2023-03-04T10:44:20.792Z,7.50
2023-03-04T10:46:49.777Z,7.70
2023-03-04T10:49:20.060Z,8.20
2023-03-04T10:52:25.991Z,8.10
2023-03-04T10:55:05.916Z,8.10
2023-03-04T10:57:37.800Z,8.50
2023-03-04T11:00:33.673Z,8.40
2023-03-04T11:03:30.202Z,8.50
2023-03-04T11:06:21.758Z,8.20
2023-03-04T11:09:00.102Z,8.30
2023-03-04T11:11:44.738Z,8.00
2023-03-04T11:14:28.708Z,8.20
2023-03-04T11:17:03.469Z,8.20
2023-03-04T11:19:41.735Z,7.90
2023-03-04T11:22:16.275Z,7.80
2023-03-04T11:24:44.006Z,7.70
2023-03-04T11:27:46.169Z,7.70
2023-03-04T11:30:36.750Z,7.70
2023-03-04T11:33:24.069Z,7.70
2023-03-04T11:35:59.048Z,7.60
2023-03-04T11:38:51.145Z,7.70
2023-03-04T11:41:47.622Z,7.60
2023-03-04T11:44:14.832Z,7.60
2023-03-04T11:47:05.870Z,7.80
2023-03-04T11:49:56.075Z,7.50
2023-03-04T11:52:23.122Z,7.50
2023-03-04T11:55:34.519Z,7.50
2023-03-04T11:58:35.066Z,7.70
2023-03-04T12:01:38.568Z,7.50
2023-03-04T12:04:15.173Z,7.60
2023-03-04T12:07:00.538Z,7.50
2023-03-04T12:09:52.500Z,7.40
2023-03-04T12:12:53.185Z,7.50
2023-03-04T12:15:41.073Z,7.80
2023-03-04T12:18:26.051Z,7.90
2023-03-04T12:21:27.704Z,7.90
2023-03-04T12:24:14.281Z,8.10
2023-03-04T12:26:51.553Z,8.00
2023-03-04T12:29:56.467Z,8.00
2023-03-04T12:32:40.613Z,8.10
2023-03-04T12:35:39.843Z,8.30
2023-03-04T12:38:20.485Z,8.20
2023-03-04T12:41:22.348Z,8.40
2023-03-04T12:44:21.081Z,8.70
2023-03-04T12:47:21.966Z,8.80
2023-03-04T12:50:26.650Z,8.60
2023-03-04T12:53:22.904Z,8.60
2023-03-04T12:55:50.872Z,8.60
2023-03-04T12:58:37.130Z,8.60
2023-03-04T13:01:16.391Z,8.80
2023-03-04T13:04:07.547Z,9.00
2023-03-04T13:07:00.674Z,8.90
2023-03-04T13:09:35.933Z,8.70
2023-03-04T13:12:22.551Z,8.50
2023-03-04T13:15:10.664Z,8.60
2023-03-04T13:17:44.145Z,8.60
2023-03-04T13:20:30.017Z,8.70
2023-03-04T13:23:14.247Z,8.60
2023-03-04T13:25:50.610Z,8.60
2023-03-04T13:28:31.200Z,8.50
2023-03-04T13:30:59.622Z,8.30
2023-03-04T13:33:26.571Z,8.40
2023-03-04T13:36:01.133Z,8.20
2023-03-04T13:38:28.234Z,8.20
2023-03-04T13:41:15.123Z,8.20
2023-03-04T13:43:46.905Z,8.10
2023-03-04T13:46:20.216Z,8.10
2023-03-04T13:48:50.229Z,7.90
2023-03-04T13:51:29.433Z,7.90
2023-03-04T13:54:16.857Z,7.80
2023-03-04T13:57:17.011Z,7.70
2023-03-04T13:59:54.867Z,7.50
2023-03-04T14:02:27.194Z,7.70
2023-03-04T14:04:54.199Z,7.60
2023-03-04T14:07:26.121Z,7.60
2023-03-04T14:10:13.183Z,7.70
2023-03-04T14:12:58.063Z,7.70
2023-03-04T14:15:28.855Z,7.80
2023-03-04T14:18:02.089Z,7.80
2023-03-04T14:20:39.559Z,7.70
2023-03-04T14:23:27.313Z,7.70
2023-03-04T14:26:07.087Z,7.70
2023-03-04T14:28:42.045Z,7.60
2023-03-04T14:31:20.393Z,7.60
2023-03-04T14:33:54.380Z,7.60
2023-03-04T14:36:24.136Z,7.60
2023-03-04T14:38:59.036Z,7.50
2023-03-04T14:41:37.934Z,7.50
2023-03-04T14:44:28.206Z,7.60
2023-03-04T14:47:17.990Z,7.60
2023-03-04T14:49:45.448Z,7.60
2023-03-04T14:52:52.233Z,7.80
2023-03-04T14:55:28.533Z,7.90
2023-03-04T14:58:09.390Z,8.00
2023-03-04T15:00:41.070Z,8.00
2023-03-04T15:03:26.366Z,8.00
2023-03-04T15:05:55.686Z,8.10
2023-03-04T15:08:36.182Z,8.10
2023-03-04T15:11:06.482Z,8.00
2023-03-04T15:13:45.464Z,7.90
2023-03-04T15:16:15.629Z,7.90
2023-03-04T15:19:06.035Z,7.70
2023-03-04T15:21:44.481Z,7.90
2023-03-04T15:24:13.608Z,7.90
2023-03-04T15:26:43.393Z,7.90
2023-03-04T15:29:20.035Z,8.10
2023-03-04T15:31:51.890Z,8.10
2023-03-04T15:34:21.234Z,8.00
2023-03-04T15:36:50.829Z,8.00
2023-03-04T15:39:19.861Z,8.00
2023-03-04T15:41:48.370Z,8.10
2023-03-04T15:44:15.889Z,8.00
2023-03-04T15:46:43.430Z,8.10
2023-03-04T15:49:10.632Z,8.10
2023-03-04T15:51:37.700Z,8.10
2023-03-04T15:54:07.855Z,8.10
2023-03-04T15:56:35.294Z,8.10
2023-03-04T15:59:16.072Z,8.10
2023-03-04T16:01:44.004Z,8.20
2023-03-04T16:04:17.222Z,8.10
2023-03-04T16:06:46.912Z,8.10
2023-03-04T16:09:17.577Z,8.00
2023-03-04T16:11:47.730Z,7.90
2023-03-04T16:14:16.454Z,7.90
2023-03-04T16:16:47.054Z,7.80
2023-03-04T16:19:14.198Z,7.70
2023-03-04T16:21:41.528Z,7.60
2023-03-04T16:24:19.793Z,7.60
2023-03-04T16:26:47.860Z,7.60
2023-03-04T16:29:16.610Z,7.60
2023-03-04T16:31:43.993Z,7.60
2023-03-04T16:34:11.231Z,7.60
2023-03-04T16:36:38.486Z,7.60
2023-03-04T16:39:17.466Z,7.60
2023-03-04T16:41:44.666Z,7.60
2023-03-04T16:44:16.736Z,7.60
2023-03-04T16:46:57.535Z,7.60
2023-03-04T16:49:25.274Z,7.60
2023-03-04T16:51:52.626Z,7.50
2023-03-04T16:54:30.814Z,7.50
2023-03-04T16:56:59.492Z,7.40
2023-03-04T16:59:28.324Z,7.40
2023-03-04T17:01:56.239Z,7.40
2023-03-04T17:04:25.569Z,7.40
2023-03-04T17:06:52.825Z,7.30
2023-03-04T17:09:19.944Z,7.30
2023-03-04T17:11:47.702Z,7.30
2023-03-04T17:14:14.805Z,7.20
2023-03-04T17:16:41.926Z,7.20
2023-03-04T17:19:09.114Z,7.20
2023-03-04T17:21:36.281Z,7.10
2023-03-04T17:24:03.732Z,7.10
2023-03-04T17:26:32.245Z,7.10
2023-03-04T17:28:59.687Z,7.10
2023-03-04T17:31:26.975Z,7.10
2023-03-04T17:33:54.044Z,7.10
2023-03-04T17:36:21.969Z,7.00
2023-03-04T17:38:49.603Z,7.00
2023-03-04T17:41:18.701Z,7.00
2023-03-04T17:43:51.679Z,7.00
2023-03-04T17:46:23.449Z,6.90
2023-03-04T17:48:55.482Z,6.90
2023-03-04T17:51:39.795Z,6.90
2023-03-04T17:54:09.265Z,6.90
2023-03-04T17:56:39.506Z,6.90
2023-03-04T17:59:13.026Z,6.90
2023-03-04T18:01:40.305Z,6.80
2023-03-04T18:04:08.227Z,6.80
2023-03-04T18:06:35.555Z,6.80
2023-03-04T18:09:03.058Z,6.80
2023-03-04T18:11:34.923Z,6.80
2023-03-04T18:14:02.142Z,6.80
2023-03-04T18:16:29.842Z,6.80
2023-03-04T18:19:01.101Z,6.80
2023-03-04T18:21:29.861Z,6.80
2023-03-04T18:23:58.514Z,6.80
2023-03-04T18:26:26.969Z,6.70
2023-03-04T18:28:55.802Z,6.70
2023-03-04T18:31:30.194Z,6.70
2023-03-04T18:34:01.325Z,6.70
2023-03-04T18:36:28.868Z,6.60
2023-03-04T18:38:59.594Z,6.60
2023-03-04T18:41:28.090Z,6.60
2023-03-04T18:43:55.463Z,6.60
2023-03-04T18:46:33.468Z,6.60
2023-03-04T18:49:08.772Z,6.50
2023-03-04T18:51:36.463Z,6.60
2023-03-04T18:54:04.308Z,6.50
2023-03-04T18:56:42.863Z,6.60
2023-03-04T18:59:38.150Z,6.50
2023-03-04T19:02:32.639Z,6.50
2023-03-04T19:05:10.070Z,6.50
2023-03-04T19:07:37.466Z,6.50
2023-03-04T19:10:05.544Z,6.40
2023-03-04T19:12:34.175Z,6.50
2023-03-04T19:15:01.565Z,6.50
2023-03-04T19:17:32.632Z,6.40
2023-03-04T19:20:00.544Z,6.40
2023-03-04T19:22:28.863Z,6.50
2023-03-04T19:24:56.152Z,6.40
2023-03-04T19:27:23.499Z,6.50
2023-03-04T19:29:50.691Z,6.50
2023-03-04T19:32:19.131Z,6.50
2023-03-04T19:34:47.808Z,6.50
2023-03-04T19:37:16.105Z,6.50
2023-03-04T19:39:43.808Z,6.50
2023-03-04T19:42:14.327Z,6.50
2023-03-04T19:44:43.795Z,6.50
2023-03-04T19:47:12.177Z,6.40
2023-03-04T19:49:39.546Z,6.40
2023-03-04T19:52:06.773Z,6.50
2023-03-04T19:54:33.982Z,6.50
2023-03-04T19:57:01.411Z,6.50
2023-03-04T19:59:28.779Z,6.50
2023-03-04T20:01:56.103Z,6.50
2023-03-04T20:04:23.420Z,6.50
2023-03-04T20:06:51.549Z,6.50
2023-03-04T20:09:19.841Z,6.50
2023-03-04T20:11:57.593Z,6.40
2023-03-04T20:14:27.861Z,6.40
2023-03-04T20:17:01.113Z,6.40
2023-03-04T20:19:33.308Z,6.40
2023-03-04T20:22:01.816Z,6.40
2023-03-04T20:24:29.176Z,6.30
2023-03-04T20:26:56.369Z,6.40
2023-03-04T20:29:23.803Z,6.30
2023-03-04T20:31:51.330Z,6.30
2023-03-04T20:34:19.040Z,6.30
2023-03-04T20:36:46.283Z,6.30
2023-03-04T20:39:28.233Z,6.30
2023-03-04T20:41:58.349Z,6.20
2023-03-04T20:44:25.767Z,6.20
2023-03-04T20:46:53.080Z,6.20
2023-03-04T20:49:24.498Z,6.20
2023-03-04T20:52:02.906Z,6.20
2023-03-04T20:54:30.979Z,6.20
2023-03-04T20:56:58.191Z,6.20
2023-03-04T20:59:25.747Z,6.20
2023-03-04T21:01:53.629Z,6.20
2023-03-04T21:04:21.486Z,6.20
2023-03-04T21:06:50.621Z,6.20
2023-03-04T21:09:20.883Z,6.20
2023-03-04T21:11:49.506Z,6.20
2023-03-04T21:14:27.148Z,6.20
2023-03-04T21:16:58.586Z,6.20
2023-03-04T21:19:36.405Z,6.20
2023-03-04T21:22:04.690Z,6.20
2023-03-04T21:24:36.146Z,6.20
2023-03-04T21:27:04.645Z,6.20
2023-03-04T21:29:32.201Z,6.20
2023-03-04T21:32:24.588Z,6.20
2023-03-04T21:34:54.786Z,6.10
2023-03-04T21:37:24.150Z,6.10
2023-03-04T21:39:51.444Z,6.10
2023-03-04T21:42:19.446Z,6.10
2023-03-04T21:44:50.512Z,6.10
2023-03-04T21:47:22.168Z,6.10
2023-03-04T21:49:49.896Z,6.10
2023-03-04T21:52:24.053Z,6.00
2023-03-04T21:54:51.237Z,6.00
2023-03-04T21:57:19.702Z,6.00
2023-03-04T21:59:47.097Z,6.00
2023-03-04T22:02:19.583Z,6.00
2023-03-04T22:04:47.361Z,6.00
2023-03-04T22:07:14.979Z,5.90
2023-03-04T22:09:42.367Z,5.90
2023-03-04T22:12:09.941Z,5.90
2023-03-04T22:14:37.498Z,5.90
2023-03-04T22:17:05.270Z,5.90
2023-03-04T22:19:33.539Z,5.80
2023-03-04T22:22:00.912Z,5.80
2023-03-04T22:24:28.672Z,5.80
2023-03-04T22:26:57.720Z,5.80
2023-03-04T22:29:24.774Z,5.80
2023-03-04T22:31:52.077Z,5.80
2023-03-04T22:34:19.723Z,5.80
2023-03-04T22:36:48.814Z,5.70
2023-03-04T22:39:20.814Z,5.70
2023-03-04T22:41:48.188Z,5.70
2023-03-04T22:44:15.454Z,5.70
2023-03-04T22:46:43.726Z,5.80
2023-03-04T22:49:13.969Z,5.70
2023-03-04T22:51:43.746Z,5.70
2023-03-04T22:54:19.247Z,5.70
2023-03-04T22:56:47.201Z,5.70
2023-03-04T22:59:15.631Z,5.60
2023-03-04T23:01:42.982Z,5.60
2023-03-04T23:04:10.742Z,5.60
2023-03-04T23:06:38.116Z,5.70
2023-03-04T23:09:06.260Z,5.60
2023-03-04T23:11:35.630Z,5.60
2023-03-04T23:14:06.512Z,5.50
2023-03-04T23:16:42.636Z,5.50
2023-03-04T23:19:13.354Z,5.50
2023-03-04T23:21:42.531Z,5.50
2023-03-04T23:24:12.198Z,5.50
2023-03-04T23:26:42.821Z,5.60
2023-03-04T23:29:14.127Z,5.60
2023-03-04T23:31:42.690Z,5.50
2023-03-04T23:34:11.463Z,5.50
2023-03-04T23:36:38.885Z,5.50
2023-03-04T23:39:08.111Z,5.50
2023-03-04T23:41:35.888Z,5.50
2023-03-04T23:44:05.964Z,5.50
2023-03-04T23:46:33.218Z,5.50
2023-03-04T23:49:00.604Z,5.40
2023-03-04T23:51:30.919Z,5.40
2023-03-04T23:53:59.362Z,5.30
2023-03-04T23:56:30.168Z,5.40
2023-03-04T23:58:59.042Z,5.40
